createdAt,value
2022-11-19T00:02:00.946Z,13.87
2022-11-19T00:04:30.056Z,9.20
2022-11-19T00:06:58.474Z,10.47
2022-11-19T00:09:26.435Z,10.00
2022-11-19T00:12:11.887Z,15.53
2022-11-19T00:14:39.632Z,8.13
2022-11-19T00:17:08.633Z,11.40
2022-11-19T00:19:37.700Z,15.20
2022-11-19T00:22:05.469Z,8.83
2022-11-19T00:24:33.255Z,11.73
2022-11-19T00:27:00.927Z,8.87
2022-11-19T00:29:28.663Z,11.17
2022-11-19T00:31:56.319Z,13.33
2022-11-19T00:34:24.038Z,8.63
2022-11-19T00:36:53.059Z,9.13
2022-11-19T00:39:21.248Z,11.57
2022-11-19T00:41:49.356Z,8.53
2022-11-19T00:44:17.064Z,9.73
2022-11-19T00:46:44.730Z,6.77
2022-11-19T00:49:12.455Z,8.97
2022-11-19T00:51:40.195Z,10.83
2022-11-19T00:54:09.208Z,8.10
2022-11-19T00:56:36.887Z,8.97
2022-11-19T00:59:05.606Z,11.93
2022-11-19T01:01:33.330Z,8.77
2022-11-19T01:04:01.090Z,9.43
2022-11-19T01:06:28.763Z,10.07
2022-11-19T01:08:56.404Z,9.63
2022-11-19T01:11:27.862Z,9.20
2022-11-19T01:13:55.981Z,7.87
2022-11-19T01:16:26.996Z,9.40
2022-11-19T01:18:54.989Z,9.83
2022-11-19T01:21:24.823Z,11.27
2022-11-19T01:23:52.670Z,7.80
2022-11-19T01:26:21.121Z,9.60
2022-11-19T01:28:52.641Z,8.27
2022-11-19T01:31:22.752Z,11.37
2022-11-19T01:33:51.502Z,14.40
2022-11-19T01:36:21.948Z,9.40
2022-11-19T01:38:50.971Z,10.17
2022-11-19T01:41:19.188Z,10.40
2022-11-19T01:43:49.418Z,12.03
2022-11-19T01:46:20.922Z,12.60
2022-11-19T01:48:53.110Z,11.23
2022-11-19T01:51:25.988Z,11.60
2022-11-19T01:53:56.910Z,11.63
2022-11-19T01:56:26.060Z,12.70
2022-11-19T01:58:56.653Z,12.37
2022-11-19T02:01:25.889Z,13.80
2022-11-19T02:03:54.028Z,11.60
2022-11-19T02:06:22.053Z,10.47
2022-11-19T02:08:51.611Z,7.03
2022-11-19T02:11:33.816Z,14.63
2022-11-19T02:14:14.809Z,11.73
2022-11-19T02:16:53.333Z,7.80
2022-11-19T02:19:53.314Z,13.33
2022-11-19T02:22:39.401Z,12.30
2022-11-19T02:25:15.221Z,10.43
2022-11-19T02:28:05.733Z,10.43
2022-11-19T02:30:38.011Z,10.20
2022-11-19T02:33:10.232Z,12.40
2022-11-19T02:35:47.505Z,7.63
2022-11-19T02:38:25.161Z,8.63
2022-11-19T02:40:57.750Z,9.47
2022-11-19T02:43:33.944Z,10.17
2022-11-19T02:46:09.281Z,15.30
2022-11-19T02:48:40.088Z,10.07
2022-11-19T02:51:09.146Z,9.70
2022-11-19T02:53:37.091Z,13.37
2022-11-19T02:56:13.596Z,8.73
2022-11-19T02:59:04.792Z,9.43
2022-11-19T03:01:54.519Z,12.67
2022-11-19T03:04:31.107Z,10.83
2022-11-19T03:07:02.470Z,10.33
2022-11-19T03:09:32.154Z,13.10
2022-11-19T03:12:09.574Z,11.80
2022-11-19T03:15:03.441Z,9.53
2022-11-19T03:17:41.568Z,10.47
2022-11-19T03:20:17.263Z,9.70
2022-11-19T03:22:53.294Z,8.93
2022-11-19T03:25:27.466Z,15.50
2022-11-19T03:28:01.788Z,12.40
2022-11-19T03:30:31.114Z,10.60
2022-11-19T03:33:04.924Z,9.23
2022-11-19T03:35:37.508Z,9.77
2022-11-19T03:38:09.457Z,12.53
2022-11-19T03:40:38.530Z,10.40
2022-11-19T03:43:10.505Z,10.33
2022-11-19T03:45:43.471Z,11.87
2022-11-19T03:48:14.611Z,9.20
2022-11-19T03:50:49.457Z,7.20
2022-11-19T03:53:18.687Z,6.80
2022-11-19T03:55:50.181Z,6.20
2022-11-19T03:58:18.091Z,10.67
2022-11-19T04:00:45.759Z,9.83
2022-11-19T04:03:14.848Z,9.60
2022-11-19T04:05:42.485Z,9.80
2022-11-19T04:08:10.408Z,10.37
2022-11-19T04:10:38.136Z,8.27
2022-11-19T04:13:05.797Z,7.97
2022-11-19T04:15:33.523Z,9.67
2022-11-19T04:18:16.546Z,9.13
2022-11-19T04:20:45.054Z,9.90
2022-11-19T04:23:12.768Z,10.47
2022-11-19T04:25:41.420Z,7.77
2022-11-19T04:28:09.148Z,9.20
2022-11-19T04:30:36.853Z,9.57
2022-11-19T04:33:05.097Z,11.23
2022-11-19T04:35:34.316Z,12.63
2022-11-19T04:38:02.000Z,8.40
2022-11-19T04:40:29.758Z,10.37
2022-11-19T04:42:57.521Z,7.00
2022-11-19T04:45:25.170Z,7.70
2022-11-19T04:47:52.778Z,8.33
2022-11-19T04:50:20.453Z,8.07
2022-11-19T04:52:49.497Z,8.77
2022-11-19T04:55:17.287Z,7.30
2022-11-19T04:57:44.997Z,7.00
2022-11-19T05:00:13.965Z,8.00
2022-11-19T05:02:41.587Z,9.43
2022-11-19T05:05:09.959Z,9.23
2022-11-19T05:07:37.663Z,6.70
2022-11-19T05:10:07.490Z,8.23
2022-11-19T05:12:35.440Z,8.47
2022-11-19T05:15:03.126Z,7.87
2022-11-19T05:17:30.745Z,9.77
2022-11-19T05:19:59.972Z,6.30
2022-11-19T05:22:27.812Z,8.40
2022-11-19T05:24:55.456Z,8.63
2022-11-19T05:27:24.450Z,6.90
2022-11-19T05:29:52.059Z,6.87
2022-11-19T05:32:19.746Z,6.43
2022-11-19T05:34:47.556Z,7.07
2022-11-19T05:37:15.426Z,6.77
2022-11-19T05:39:43.307Z,7.27
2022-11-19T05:42:10.973Z,10.03
2022-11-19T05:44:39.980Z,6.80
2022-11-19T05:47:07.593Z,10.47
2022-11-19T05:49:35.250Z,8.03
2022-11-19T05:52:02.955Z,6.70
2022-11-19T05:54:30.690Z,8.20
2022-11-19T05:56:58.380Z,7.97
2022-11-19T05:59:26.042Z,7.37
2022-11-19T06:01:55.048Z,8.00
2022-11-19T06:04:22.679Z,7.60
2022-11-19T06:06:50.568Z,7.57
2022-11-19T06:09:18.443Z,7.87
2022-11-19T06:11:50.236Z,7.93
2022-11-19T06:14:19.077Z,8.47
2022-11-19T06:16:46.858Z,8.47
2022-11-19T06:19:16.052Z,8.10
2022-11-19T06:21:43.880Z,6.30
2022-11-19T06:24:14.007Z,7.53
2022-11-19T06:26:42.077Z,7.13
2022-11-19T06:29:10.584Z,10.03
2022-11-19T06:31:38.353Z,9.53
2022-11-19T06:34:06.111Z,11.60
2022-11-19T06:36:40.424Z,9.50
2022-11-19T06:39:11.130Z,7.27
2022-11-19T06:41:38.808Z,7.67
2022-11-19T06:44:06.455Z,7.07
2022-11-19T06:46:34.223Z,6.67
2022-11-19T06:49:03.680Z,7.87
2022-11-19T06:51:31.451Z,6.97
2022-11-19T06:54:00.614Z,8.17
2022-11-19T06:56:28.281Z,7.40
2022-11-19T06:58:57.392Z,6.20
2022-11-19T07:01:25.579Z,8.97
2022-11-19T07:03:53.329Z,5.83
2022-11-19T07:06:21.124Z,4.63
2022-11-19T07:08:48.996Z,5.40
2022-11-19T07:11:27.156Z,4.77
2022-11-19T07:13:59.075Z,4.67
2022-11-19T07:16:31.091Z,4.33
2022-11-19T07:19:00.062Z,6.57
2022-11-19T07:21:28.765Z,4.77
2022-11-19T07:23:56.685Z,4.53
2022-11-19T07:26:26.836Z,4.40
2022-11-19T07:28:54.750Z,5.90
2022-11-19T07:31:23.123Z,6.87
2022-11-19T07:33:50.838Z,6.27
2022-11-19T07:36:18.837Z,5.23
2022-11-19T07:38:47.087Z,6.50
2022-11-19T07:41:28.832Z,6.90
2022-11-19T07:43:57.964Z,7.90
2022-11-19T07:46:25.848Z,7.90
2022-11-19T07:48:55.359Z,7.87
2022-11-19T07:51:23.512Z,6.80
2022-11-19T07:53:51.323Z,7.47
2022-11-19T07:56:19.407Z,8.20
2022-11-19T07:58:47.204Z,7.77
2022-11-19T08:01:18.933Z,7.60
2022-11-19T08:03:50.582Z,7.70
2022-11-19T08:06:23.283Z,10.53
2022-11-19T08:08:50.949Z,7.17
2022-11-19T08:11:19.276Z,7.73
2022-11-19T08:13:47.121Z,7.33
2022-11-19T08:16:37.605Z,8.60
2022-11-19T08:19:07.210Z,7.90
2022-11-19T08:21:35.461Z,8.20
2022-11-19T08:24:03.255Z,7.47
2022-11-19T08:26:30.913Z,9.93
2022-11-19T08:29:00.813Z,9.40
2022-11-19T08:31:30.098Z,9.43
2022-11-19T08:33:57.808Z,7.93
2022-11-19T08:36:25.519Z,8.77
2022-11-19T08:38:53.186Z,8.20
2022-11-19T08:41:38.227Z,8.77
2022-11-19T08:44:06.302Z,12.03
2022-11-19T08:46:35.567Z,10.90
2022-11-19T08:49:03.162Z,14.27
2022-11-19T08:51:30.884Z,13.43
2022-11-19T08:53:58.542Z,11.13
2022-11-19T08:56:26.274Z,11.33
2022-11-19T08:58:57.353Z,11.70
2022-11-19T09:01:27.588Z,10.10
2022-11-19T09:03:56.629Z,12.27
2022-11-19T09:06:24.384Z,11.40
2022-11-19T09:08:52.020Z,11.50
2022-11-19T09:11:21.627Z,9.33
2022-11-19T09:13:49.556Z,12.03
2022-11-19T09:16:17.475Z,10.67
2022-11-19T09:18:45.195Z,11.33
2022-11-19T09:21:14.259Z,9.17
2022-11-19T09:23:42.687Z,10.00
2022-11-19T09:26:15.894Z,10.57
2022-11-19T09:28:44.275Z,11.33
2022-11-19T09:31:14.460Z,9.63
2022-11-19T09:33:43.827Z,10.37
2022-11-19T09:36:12.317Z,11.20
2022-11-19T09:38:41.671Z,10.83
2022-11-19T09:41:44.734Z,10.43
2022-11-19T09:44:23.581Z,11.43
2022-11-19T09:47:02.257Z,11.30
2022-11-19T09:49:35.336Z,10.47
2022-11-19T09:52:11.125Z,8.50
2022-11-19T09:54:45.630Z,10.03
2022-11-19T09:57:19.444Z,9.17
2022-11-19T09:59:48.757Z,9.93
2022-11-19T10:02:18.999Z,9.67
2022-11-19T10:04:48.227Z,11.73
2022-11-19T10:07:31.203Z,10.93
2022-11-19T10:10:16.256Z,9.13
2022-11-19T10:13:12.741Z,9.73
2022-11-19T10:15:58.728Z,10.93
2022-11-19T10:18:36.679Z,9.90
2022-11-19T10:21:10.773Z,9.37
2022-11-19T10:23:50.460Z,10.53
2022-11-19T10:26:25.534Z,9.03
2022-11-19T10:28:56.964Z,10.23
2022-11-19T10:31:35.857Z,9.27
2022-11-19T10:34:12.826Z,9.77
2022-11-19T10:36:44.409Z,9.97
2022-11-19T10:39:19.413Z,10.90
2022-11-19T10:41:54.937Z,9.60
2022-11-19T10:44:39.992Z,9.23
2022-11-19T10:47:11.737Z,10.33
2022-11-19T10:49:41.855Z,9.77
2022-11-19T10:52:18.840Z,10.57
2022-11-19T10:54:48.522Z,10.10
2022-11-19T10:57:20.158Z,10.27
2022-11-19T10:59:50.640Z,10.10
2022-11-19T11:02:27.987Z,11.77
2022-11-19T11:05:14.520Z,8.43
2022-11-19T11:07:57.085Z,9.20
2022-11-19T11:10:46.345Z,9.60
2022-11-19T11:13:46.415Z,12.07
2022-11-19T11:16:18.455Z,8.97
2022-11-19T11:18:47.579Z,9.93
2022-11-19T11:21:33.109Z,8.73
2022-11-19T11:24:02.693Z,12.47
2022-11-19T11:26:33.619Z,8.77
2022-11-19T11:29:05.337Z,9.87
2022-11-19T11:31:36.787Z,10.30
2022-11-19T11:34:06.031Z,9.77
2022-11-19T11:36:36.728Z,9.43
2022-11-19T11:39:06.266Z,9.90
2022-11-19T11:44:28.668Z,10.90
2022-11-19T11:46:59.535Z,10.03
2022-11-19T11:49:31.007Z,9.50
2022-11-19T11:52:17.627Z,8.80
2022-11-19T11:54:57.499Z,10.60
2022-11-19T11:57:27.592Z,8.57
2022-11-19T11:59:56.966Z,9.07
2022-11-19T12:02:30.263Z,10.43
2022-11-19T12:05:02.064Z,10.67
2022-11-19T12:07:47.062Z,10.07
2022-11-19T12:10:25.412Z,10.80
2022-11-19T12:13:08.500Z,9.47
2022-11-19T12:15:47.042Z,10.87
2022-11-19T12:18:27.538Z,11.40
2022-11-19T12:21:02.969Z,8.33
2022-11-19T12:23:53.493Z,10.03
2022-11-19T12:26:32.294Z,9.10
2022-11-19T12:29:13.384Z,7.67
2022-11-19T12:31:56.539Z,10.13
2022-11-19T12:34:47.887Z,12.03
2022-11-19T12:37:28.527Z,9.60
2022-11-19T12:40:01.383Z,7.40
2022-11-19T12:42:41.357Z,9.77
2022-11-19T12:45:18.430Z,11.67
2022-11-19T12:48:12.898Z,10.00
2022-11-19T12:50:51.725Z,9.20
2022-11-19T12:53:33.614Z,11.83
2022-11-19T12:56:12.429Z,11.57
2022-11-19T12:58:51.490Z,9.07
2022-11-19T13:01:24.708Z,9.33
2022-11-19T13:04:04.234Z,9.73
2022-11-19T13:06:37.137Z,10.83
2022-11-19T13:09:10.360Z,9.90
2022-11-19T13:11:43.739Z,9.33
2022-11-19T13:14:18.817Z,9.30
2022-11-19T13:16:47.207Z,9.90
2022-11-19T13:19:25.937Z,9.57
2022-11-19T13:21:58.455Z,11.33
2022-11-19T13:24:32.378Z,13.60
2022-11-19T13:27:04.901Z,12.33
2022-11-19T13:29:38.385Z,10.07
2022-11-19T13:32:16.612Z,10.40
2022-11-19T13:35:00.841Z,11.07
2022-11-19T13:37:40.239Z,10.97
2022-11-19T13:40:20.660Z,11.90
2022-11-19T13:46:06.526Z,9.33
2022-11-19T13:48:39.927Z,10.33
2022-11-19T13:51:21.249Z,10.37
2022-11-19T13:53:49.299Z,9.93
2022-11-19T13:56:18.254Z,9.80
2022-11-19T13:58:48.566Z,9.40
2022-11-19T14:01:32.042Z,11.30
2022-11-19T14:04:18.088Z,10.63
2022-11-19T14:07:00.463Z,8.83
2022-11-19T14:09:38.568Z,9.37
2022-11-19T14:12:46.136Z,10.10
2022-11-19T14:15:50.425Z,13.83
2022-11-19T14:18:43.544Z,9.37
2022-11-19T14:22:10.689Z,9.27
2022-11-19T14:25:15.843Z,9.97
2022-11-19T14:27:44.510Z,11.70
2022-11-19T14:30:17.767Z,10.03
2022-11-19T14:32:51.653Z,10.47
2022-11-19T14:35:30.749Z,9.70
2022-11-19T14:38:10.997Z,13.40
2022-11-19T14:40:43.720Z,9.87
2022-11-19T14:43:42.149Z,9.50
2022-11-19T14:46:33.592Z,11.40
2022-11-19T14:49:05.889Z,10.77
2022-11-19T14:51:39.106Z,12.27
2022-11-19T14:54:30.067Z,10.30
2022-11-19T14:57:25.551Z,12.77
2022-11-19T14:59:56.334Z,13.57
2022-11-19T15:02:27.587Z,13.87
2022-11-19T15:05:02.771Z,12.17
2022-11-19T15:07:40.972Z,12.83
2022-11-19T15:10:29.171Z,12.97
2022-11-19T15:13:22.721Z,10.57
2022-11-19T15:15:53.801Z,12.00
2022-11-19T15:19:01.948Z,12.13
2022-11-19T15:22:06.791Z,12.40
2022-11-19T15:24:50.728Z,12.90
2022-11-19T15:27:28.028Z,14.23
2022-11-19T15:30:07.493Z,13.17
2022-11-19T15:33:03.406Z,11.43
2022-11-19T15:36:05.387Z,14.53
2022-11-19T15:38:39.589Z,15.03
2022-11-19T15:41:13.371Z,13.83
2022-11-19T15:43:46.957Z,13.83
2022-11-19T15:46:20.096Z,16.73
2022-11-19T15:48:58.635Z,13.67
2022-11-19T15:51:26.637Z,12.57
2022-11-19T15:54:01.340Z,15.30
2022-11-19T15:56:33.003Z,15.00
2022-11-19T15:59:03.339Z,16.57
2022-11-19T16:01:34.344Z,12.73
2022-11-19T16:04:07.510Z,13.13
2022-11-19T16:06:37.588Z,12.60
2022-11-19T16:09:05.923Z,15.17
2022-11-19T16:11:54.853Z,16.93
2022-11-19T16:14:42.974Z,13.77
2022-11-19T16:17:41.673Z,15.80
2022-11-19T16:20:20.460Z,15.20
2022-11-19T16:22:53.800Z,17.13
2022-11-19T16:25:32.296Z,16.50
2022-11-19T16:28:03.105Z,15.40
2022-11-19T16:30:40.641Z,16.03
2022-11-19T16:33:15.888Z,17.50
2022-11-19T16:35:47.159Z,17.10
2022-11-19T16:38:23.113Z,18.40
2022-11-19T16:41:08.339Z,18.80
2022-11-19T16:43:37.427Z,18.43
2022-11-19T16:46:07.877Z,15.33
2022-11-19T16:49:00.252Z,17.07
2022-11-19T16:51:37.292Z,16.07
2022-11-19T16:54:06.896Z,16.90
2022-11-19T16:56:52.563Z,15.20
2022-11-19T16:59:23.827Z,17.93
2022-11-19T17:01:59.631Z,15.63
2022-11-19T17:04:31.410Z,19.77
2022-11-19T17:07:00.131Z,18.37
2022-11-19T17:09:41.541Z,16.93
2022-11-19T17:12:25.111Z,18.53
2022-11-19T17:14:59.039Z,18.17
2022-11-19T17:17:40.416Z,19.40
2022-11-19T17:20:45.141Z,16.43
2022-11-19T17:23:17.205Z,19.87
2022-11-19T17:25:50.507Z,21.33
2022-11-19T17:28:21.433Z,19.93
2022-11-19T17:30:50.466Z,20.23
2022-11-19T17:33:22.853Z,22.60
2022-11-19T17:35:52.104Z,20.67
2022-11-19T17:38:23.702Z,19.93
2022-11-19T17:40:53.190Z,21.90
2022-11-19T17:43:41.604Z,20.67
2022-11-19T17:46:09.318Z,20.03
2022-11-19T17:48:40.491Z,19.27
2022-11-19T17:51:10.754Z,20.90
2022-11-19T17:53:38.473Z,20.17
2022-11-19T17:56:06.963Z,19.77
2022-11-19T17:58:34.709Z,25.40
2022-11-19T18:01:02.540Z,24.27
2022-11-19T18:03:30.242Z,20.43
2022-11-19T18:06:01.335Z,20.70
2022-11-19T18:08:29.382Z,19.97
2022-11-19T18:10:57.277Z,19.63
2022-11-19T18:13:28.029Z,22.40
2022-11-19T18:15:55.727Z,20.90
2022-11-19T18:18:23.420Z,20.97
2022-11-19T18:20:51.560Z,20.90
2022-11-19T18:23:20.611Z,22.30
2022-11-19T18:25:48.314Z,18.90
2022-11-19T18:28:16.057Z,23.40
2022-11-19T18:30:43.985Z,22.07
2022-11-19T18:33:12.422Z,21.90
2022-11-19T18:35:40.121Z,22.17
2022-11-19T18:38:07.779Z,25.83
2022-11-19T18:40:37.019Z,20.97
2022-11-19T18:43:22.761Z,23.87
2022-11-19T18:45:50.423Z,23.77
2022-11-19T18:48:18.101Z,22.73
2022-11-19T18:50:45.959Z,23.70
2022-11-19T18:53:14.080Z,22.37
2022-11-19T18:55:43.109Z,21.97
2022-11-19T18:58:10.825Z,21.63
2022-11-19T19:00:38.507Z,27.83
2022-11-19T19:03:08.037Z,25.40
2022-11-19T19:05:35.742Z,23.63
2022-11-19T19:08:03.488Z,20.83
2022-11-19T19:10:31.204Z,22.17
2022-11-19T19:12:59.508Z,24.97
2022-11-19T19:15:27.280Z,23.27
2022-11-19T19:17:55.038Z,23.20
2022-11-19T19:20:22.740Z,22.77
2022-11-19T19:22:50.492Z,22.97
2022-11-19T19:25:18.299Z,24.30
2022-11-19T19:27:46.029Z,23.60
2022-11-19T19:30:16.007Z,24.10
2022-11-19T19:32:44.467Z,24.83
2022-11-19T19:35:12.204Z,25.60
2022-11-19T19:37:41.764Z,26.13
2022-11-19T19:40:11.020Z,22.77
2022-11-19T19:42:41.351Z,23.87
2022-11-19T19:45:10.076Z,25.90
2022-11-19T19:47:39.152Z,25.07
2022-11-19T19:50:07.836Z,26.17
2022-11-19T19:52:35.571Z,23.20
2022-11-19T19:55:03.379Z,27.27
2022-11-19T19:57:31.154Z,24.00
2022-11-19T19:59:59.657Z,25.67
2022-11-19T20:02:27.411Z,25.43
2022-11-19T20:04:56.453Z,24.57
2022-11-19T20:07:24.230Z,22.63
2022-11-19T20:09:51.975Z,25.00
2022-11-19T20:12:19.570Z,28.67
2022-11-19T20:14:47.713Z,28.60
2022-11-19T20:17:15.564Z,25.93
2022-11-19T20:19:43.277Z,22.07
2022-11-19T20:22:12.268Z,24.03
2022-11-19T20:24:39.971Z,24.10
2022-11-19T20:27:07.624Z,25.60
2022-11-19T20:29:35.267Z,23.30
2022-11-19T20:32:03.038Z,25.33
2022-11-19T20:34:30.747Z,25.60
2022-11-19T20:36:58.521Z,22.67
2022-11-19T20:39:27.573Z,23.07
2022-11-19T20:42:12.714Z,24.60
2022-11-19T20:44:40.494Z,23.67
2022-11-19T20:47:08.141Z,25.17
2022-11-19T20:49:38.058Z,24.80
2022-11-19T20:52:06.656Z,23.53
2022-11-19T20:54:35.748Z,25.20
2022-11-19T20:57:03.720Z,24.37
2022-11-19T20:59:31.736Z,23.87
2022-11-19T21:01:59.527Z,25.93
2022-11-19T21:04:28.454Z,26.10
2022-11-19T21:06:56.400Z,25.20
2022-11-19T21:09:24.771Z,32.70
2022-11-19T21:11:54.280Z,35.77
2022-11-19T21:14:22.160Z,24.63
2022-11-19T21:16:49.963Z,29.20
2022-11-19T21:19:17.898Z,26.23
2022-11-19T21:21:45.818Z,22.43
2022-11-19T21:24:13.757Z,22.50
2022-11-19T21:26:41.693Z,24.60
2022-11-19T21:29:10.886Z,24.60
2022-11-19T21:31:39.763Z,25.33
2022-11-19T21:34:08.769Z,24.10
2022-11-19T21:36:37.254Z,26.73
2022-11-19T21:39:06.054Z,23.77
2022-11-19T21:41:35.925Z,24.77
2022-11-19T21:44:04.286Z,24.63
2022-11-19T21:46:33.843Z,24.77
2022-11-19T21:49:01.782Z,25.03
2022-11-19T21:51:29.738Z,23.40
2022-11-19T21:53:58.690Z,22.90
2022-11-19T21:56:28.162Z,25.97
2022-11-19T21:58:55.876Z,25.10
2022-11-19T22:01:23.583Z,23.80
2022-11-19T22:03:52.601Z,22.90
2022-11-19T22:06:23.010Z,24.17
2022-11-19T22:08:50.680Z,21.93
2022-11-19T22:11:30.792Z,24.93
2022-11-19T22:14:00.533Z,23.60
2022-11-19T22:16:28.612Z,27.03
2022-11-19T22:18:57.701Z,24.53
2022-11-19T22:21:25.427Z,25.20
2022-11-19T22:23:53.622Z,26.30
2022-11-19T22:26:21.411Z,25.37
2022-11-19T22:28:49.121Z,26.77
2022-11-19T22:31:16.869Z,26.57
2022-11-19T22:33:44.613Z,29.17
2022-11-19T22:36:13.603Z,24.37
2022-11-19T22:38:41.288Z,23.60
2022-11-19T22:41:11.341Z,24.83
2022-11-19T22:43:40.153Z,26.33
2022-11-19T22:46:08.558Z,26.67
2022-11-19T22:48:37.289Z,26.27
2022-11-19T22:51:07.220Z,28.10
2022-11-19T22:53:36.636Z,28.13
2022-11-19T22:56:05.696Z,28.27
2022-11-19T22:58:33.446Z,30.33
2022-11-19T23:01:01.238Z,28.03
2022-11-19T23:03:29.131Z,27.47
2022-11-19T23:05:59.169Z,31.20
2022-11-19T23:08:27.206Z,27.03
2022-11-19T23:11:00.796Z,29.07
2022-11-19T23:13:32.056Z,27.13
2022-11-19T23:16:02.064Z,29.93
2022-11-19T23:18:31.390Z,27.20
2022-11-19T23:21:00.019Z,32.13
2022-11-19T23:23:28.345Z,27.77
2022-11-19T23:25:57.636Z,32.13
2022-11-19T23:28:27.252Z,32.03
2022-11-19T23:30:55.600Z,29.47
2022-11-19T23:33:23.883Z,32.60
2022-11-19T23:35:51.583Z,31.03
2022-11-19T23:38:19.297Z,31.07
2022-11-19T23:40:47.205Z,26.60
2022-11-19T23:43:14.942Z,29.87
2022-11-19T23:45:44.029Z,27.27
2022-11-19T23:48:11.692Z,27.67
2022-11-19T23:50:39.395Z,26.67
2022-11-19T23:53:07.279Z,31.30
2022-11-19T23:55:35.122Z,28.07
2022-11-19T23:58:02.823Z,28.03
